sensor_id;sensor_type;location;lat;lon;timestamp;temperature;humidity
4354;DHT22;11018;51.258;6.806;2023-04-16T00:00:48;9.20;99.90
4354;DHT22;11018;51.258;6.806;2023-04-16T00:03:14;9.10;99.90
4354;DHT22;11018;51.258;6.806;2023-04-16T00:05:40;9.10;99.90
4354;DHT22;11018;51.258;6.806;2023-04-16T00:08:05;9.00;99.90
4354;DHT22;11018;51.258;6.806;2023-04-16T00:10:31;9.00;99.90
4354;DHT22;11018;51.258;6.806;2023-04-16T00:12:57;9.00;99.90
4354;DHT22;11018;51.258;6.806;2023-04-16T00:15:22;8.90;99.90
4354;DHT22;11018;51.258;6.806;2023-04-16T00:17:48;9.00;99.90
4354;DHT22;11018;51.258;6.806;2023-04-16T00:20:14;9.00;99.90
4354;DHT22;11018;51.258;6.806;2023-04-16T00:22:39;9.00;99.90
4354;DHT22;11018;51.258;6.806;2023-04-16T00:25:05;9.10;99.90
4354;DHT22;11018;51.258;6.806;2023-04-16T00:27:30;9.10;99.90
4354;DHT22;11018;51.258;6.806;2023-04-16T00:29:56;9.20;99.90
4354;DHT22;11018;51.258;6.806;2023-04-16T00:32:22;9.20;99.90
4354;DHT22;11018;51.258;6.806;2023-04-16T00:34:47;9.20;99.90
4354;DHT22;11018;51.258;6.806;2023-04-16T00:37:13;9.10;99.90
4354;DHT22;11018;51.258;6.806;2023-04-16T00:39:38;9.10;99.90
4354;DHT22;11018;51.258;6.806;2023-04-16T00:42:04;9.10;99.90
4354;DHT22;11018;51.258;6.806;2023-04-16T00:44:29;9.10;99.90
4354;DHT22;11018;51.258;6.806;2023-04-16T00:46:56;9.00;99.90
4354;DHT22;11018;51.258;6.806;2023-04-16T00:49:22;9.00;99.90
4354;DHT22;11018;51.258;6.806;2023-04-16T00:51:49;9.00;99.90
4354;DHT22;11018;51.258;6.806;2023-04-16T00:54:14;9.00;99.90
4354;DHT22;11018;51.258;6.806;2023-04-16T00:56:40;9.00;99.90
4354;DHT22;11018;51.258;6.806;2023-04-16T00:59:07;9.00;99.90
4354;DHT22;11018;51.258;6.806;2023-04-16T01:01:33;9.10;99.90
4354;DHT22;11018;51.258;6.806;2023-04-16T01:03:58;9.10;99.90
4354;DHT22;11018;51.258;6.806;2023-04-16T01:06:24;9.10;99.90
4354;DHT22;11018;51.258;6.806;2023-04-16T01:08:50;9.10;99.90
4354;DHT22;11018;51.258;6.806;2023-04-16T01:11:15;9.10;99.90
4354;DHT22;11018;51.258;6.806;2023-04-16T01:13:41;9.10;99.90
4354;DHT22;11018;51.258;6.806;2023-04-16T01:16:08;9.10;99.90
4354;DHT22;11018;51.258;6.806;2023-04-16T01:18:34;9.10;99.90
4354;DHT22;11018;51.258;6.806;2023-04-16T01:21:01;9.10;99.90
4354;DHT22;11018;51.258;6.806;2023-04-16T01:23:26;9.10;99.90
4354;DHT22;11018;51.258;6.806;2023-04-16T01:25:52;9.10;99.90
4354;DHT22;11018;51.258;6.806;2023-04-16T01:28:18;9.00;99.90
4354;DHT22;11018;51.258;6.806;2023-04-16T01:30:43;9.10;99.90
4354;DHT22;11018;51.258;6.806;2023-04-16T01:33:12;9.10;99.90
4354;DHT22;11018;51.258;6.806;2023-04-16T01:35:39;9.00;99.90
4354;DHT22;11018;51.258;6.806;2023-04-16T01:38:08;9.00;99.90
4354;DHT22;11018;51.258;6.806;2023-04-16T01:40:34;9.00;99.90
4354;DHT22;11018;51.258;6.806;2023-04-16T01:43:00;9.00;99.90
4354;DHT22;11018;51.258;6.806;2023-04-16T01:45:26;9.00;99.90
4354;DHT22;11018;51.258;6.806;2023-04-16T01:47:51;8.90;99.90
4354;DHT22;11018;51.258;6.806;2023-04-16T01:50:20;9.00;99.90
4354;DHT22;11018;51.258;6.806;2023-04-16T01:52:46;9.00;99.90
4354;DHT22;11018;51.258;6.806;2023-04-16T01:55:12;9.00;99.90
4354;DHT22;11018;51.258;6.806;2023-04-16T01:57:38;9.00;99.90
4354;DHT22;11018;51.258;6.806;2023-04-16T02:00:04;9.10;99.90
4354;DHT22;11018;51.258;6.806;2023-04-16T02:02:30;9.00;99.90
4354;DHT22;11018;51.258;6.806;2023-04-16T02:04:56;9.00;99.90
4354;DHT22;11018;51.258;6.806;2023-04-16T02:07:22;9.00;99.90
4354;DHT22;11018;51.258;6.806;2023-04-16T02:09:48;8.90;99.90
4354;DHT22;11018;51.258;6.806;2023-04-16T02:12:17;8.90;99.90
4354;DHT22;11018;51.258;6.806;2023-04-16T02:14:42;8.90;99.90
4354;DHT22;11018;51.258;6.806;2023-04-16T02:17:08;8.90;99.90
4354;DHT22;11018;51.258;6.806;2023-04-16T02:19:34;8.90;99.90
4354;DHT22;11018;51.258;6.806;2023-04-16T02:21:59;8.90;99.90
4354;DHT22;11018;51.258;6.806;2023-04-16T02:24:28;8.90;99.90
4354;DHT22;11018;51.258;6.806;2023-04-16T02:26:53;8.80;99.90
4354;DHT22;11018;51.258;6.806;2023-04-16T02:29:19;8.80;99.90
4354;DHT22;11018;51.258;6.806;2023-04-16T02:31:47;8.80;99.90
4354;DHT22;11018;51.258;6.806;2023-04-16T02:34:13;8.90;99.90
4354;DHT22;11018;51.258;6.806;2023-04-16T02:36:38;8.90;99.90
4354;DHT22;11018;51.258;6.806;2023-04-16T02:39:04;8.90;99.90
4354;DHT22;11018;51.258;6.806;2023-04-16T02:41:29;8.90;99.90
4354;DHT22;11018;51.258;6.806;2023-04-16T02:43:55;8.90;99.90
4354;DHT22;11018;51.258;6.806;2023-04-16T02:46:21;8.90;99.90
4354;DHT22;11018;51.258;6.806;2023-04-16T02:48:46;8.90;99.90
4354;DHT22;11018;51.258;6.806;2023-04-16T02:51:12;9.00;99.90
4354;DHT22;11018;51.258;6.806;2023-04-16T02:53:37;8.90;99.90
4354;DHT22;11018;51.258;6.806;2023-04-16T02:56:03;8.90;99.90
4354;DHT22;11018;51.258;6.806;2023-04-16T02:58:29;8.90;99.90
4354;DHT22;11018;51.258;6.806;2023-04-16T03:00:54;9.00;99.90
4354;DHT22;11018;51.258;6.806;2023-04-16T03:03:20;9.00;99.90
4354;DHT22;11018;51.258;6.806;2023-04-16T03:05:46;9.00;99.90
4354;DHT22;11018;51.258;6.806;2023-04-16T03:08:12;9.00;99.90
4354;DHT22;11018;51.258;6.806;2023-04-16T03:10:37;9.00;99.90
4354;DHT22;11018;51.258;6.806;2023-04-16T03:13:03;9.00;99.90
4354;DHT22;11018;51.258;6.806;2023-04-16T03:15:30;8.90;99.90
4354;DHT22;11018;51.258;6.806;2023-04-16T03:17:56;9.00;99.90
4354;DHT22;11018;51.258;6.806;2023-04-16T03:20:21;9.00;99.90
4354;DHT22;11018;51.258;6.806;2023-04-16T03:22:47;9.00;99.90
4354;DHT22;11018;51.258;6.806;2023-04-16T03:25:13;9.00;99.90
4354;DHT22;11018;51.258;6.806;2023-04-16T03:27:38;9.00;99.90
4354;DHT22;11018;51.258;6.806;2023-04-16T03:30:09;9.00;99.90
4354;DHT22;11018;51.258;6.806;2023-04-16T03:32:37;9.00;99.90
4354;DHT22;11018;51.258;6.806;2023-04-16T03:35:06;9.00;99.90
4354;DHT22;11018;51.258;6.806;2023-04-16T03:37:33;8.90;99.90
4354;DHT22;11018;51.258;6.806;2023-04-16T03:39:58;8.90;99.90
4354;DHT22;11018;51.258;6.806;2023-04-16T03:42:24;8.90;99.90
4354;DHT22;11018;51.258;6.806;2023-04-16T03:44:50;9.00;99.90
4354;DHT22;11018;51.258;6.806;2023-04-16T03:47:17;9.00;99.90
4354;DHT22;11018;51.258;6.806;2023-04-16T03:49:42;9.00;99.90
4354;DHT22;11018;51.258;6.806;2023-04-16T03:52:08;9.00;99.90
4354;DHT22;11018;51.258;6.806;2023-04-16T03:54:33;9.10;99.90
4354;DHT22;11018;51.258;6.806;2023-04-16T03:56:59;9.20;99.90
4354;DHT22;11018;51.258;6.806;2023-04-16T03:59:25;9.20;99.90
4354;DHT22;11018;51.258;6.806;2023-04-16T04:01:50;9.20;99.90
4354;DHT22;11018;51.258;6.806;2023-04-16T04:04:16;9.20;99.90
4354;DHT22;11018;51.258;6.806;2023-04-16T04:06:42;9.20;99.90
4354;DHT22;11018;51.258;6.806;2023-04-16T04:09:09;9.30;99.90
4354;DHT22;11018;51.258;6.806;2023-04-16T04:11:34;9.30;99.90
4354;DHT22;11018;51.258;6.806;2023-04-16T04:14:00;9.30;99.90
4354;DHT22;11018;51.258;6.806;2023-04-16T04:16:25;9.30;99.90
4354;DHT22;11018;51.258;6.806;2023-04-16T04:18:51;9.30;99.90
4354;DHT22;11018;51.258;6.806;2023-04-16T04:21:16;9.30;99.90
4354;DHT22;11018;51.258;6.806;2023-04-16T04:23:42;9.30;99.90
4354;DHT22;11018;51.258;6.806;2023-04-16T04:26:08;9.30;99.90
4354;DHT22;11018;51.258;6.806;2023-04-16T04:28:34;9.30;99.90
4354;DHT22;11018;51.258;6.806;2023-04-16T04:31:00;9.30;99.90
4354;DHT22;11018;51.258;6.806;2023-04-16T04:33:26;9.30;99.90
4354;DHT22;11018;51.258;6.806;2023-04-16T04:35:52;9.30;99.90
4354;DHT22;11018;51.258;6.806;2023-04-16T04:38:18;9.30;99.90
4354;DHT22;11018;51.258;6.806;2023-04-16T04:40:45;9.30;99.90
4354;DHT22;11018;51.258;6.806;2023-04-16T04:43:11;9.30;99.90
4354;DHT22;11018;51.258;6.806;2023-04-16T04:45:36;9.30;99.90
4354;DHT22;11018;51.258;6.806;2023-04-16T04:48:02;9.40;99.90
4354;DHT22;11018;51.258;6.806;2023-04-16T04:50:28;9.40;99.90
4354;DHT22;11018;51.258;6.806;2023-04-16T04:52:53;9.40;99.90
4354;DHT22;11018;51.258;6.806;2023-04-16T04:55:19;9.40;99.90
4354;DHT22;11018;51.258;6.806;2023-04-16T04:57:44;9.40;99.90
4354;DHT22;11018;51.258;6.806;2023-04-16T05:00:11;9.40;99.90
4354;DHT22;11018;51.258;6.806;2023-04-16T05:02:36;9.40;99.90
4354;DHT22;11018;51.258;6.806;2023-04-16T05:05:03;9.40;99.90
4354;DHT22;11018;51.258;6.806;2023-04-16T05:07:29;9.40;99.90
4354;DHT22;11018;51.258;6.806;2023-04-16T05:09:55;9.30;99.90
4354;DHT22;11018;51.258;6.806;2023-04-16T05:12:20;9.30;99.90
4354;DHT22;11018;51.258;6.806;2023-04-16T05:14:46;9.30;99.90
4354;DHT22;11018;51.258;6.806;2023-04-16T05:17:12;9.30;99.90
4354;DHT22;11018;51.258;6.806;2023-04-16T05:19:37;9.30;99.90
4354;DHT22;11018;51.258;6.806;2023-04-16T05:22:03;9.30;99.90
4354;DHT22;11018;51.258;6.806;2023-04-16T05:24:28;9.30;99.90
4354;DHT22;11018;51.258;6.806;2023-04-16T05:26:55;9.30;99.90
4354;DHT22;11018;51.258;6.806;2023-04-16T05:29:21;9.40;99.90
4354;DHT22;11018;51.258;6.806;2023-04-16T05:31:47;9.30;99.90
4354;DHT22;11018;51.258;6.806;2023-04-16T05:34:12;9.30;99.90
4354;DHT22;11018;51.258;6.806;2023-04-16T05:36:38;9.30;99.90
4354;DHT22;11018;51.258;6.806;2023-04-16T05:39:03;9.30;99.90
4354;DHT22;11018;51.258;6.806;2023-04-16T05:41:29;9.30;99.90
4354;DHT22;11018;51.258;6.806;2023-04-16T05:43:54;9.30;99.90
4354;DHT22;11018;51.258;6.806;2023-04-16T05:46:20;9.20;99.90
4354;DHT22;11018;51.258;6.806;2023-04-16T05:48:46;9.20;99.90
4354;DHT22;11018;51.258;6.806;2023-04-16T05:51:11;9.30;99.90
4354;DHT22;11018;51.258;6.806;2023-04-16T05:53:37;9.40;99.90
4354;DHT22;11018;51.258;6.806;2023-04-16T05:56:02;9.30;99.90
4354;DHT22;11018;51.258;6.806;2023-04-16T05:58:28;9.30;99.90
4354;DHT22;11018;51.258;6.806;2023-04-16T06:00:53;9.20;99.90
4354;DHT22;11018;51.258;6.806;2023-04-16T06:03:19;9.20;99.90
4354;DHT22;11018;51.258;6.806;2023-04-16T06:05:45;9.20;99.90
4354;DHT22;11018;51.258;6.806;2023-04-16T06:08:10;9.20;99.90
4354;DHT22;11018;51.258;6.806;2023-04-16T06:10:36;9.30;99.90
4354;DHT22;11018;51.258;6.806;2023-04-16T06:13:01;9.20;99.90
4354;DHT22;11018;51.258;6.806;2023-04-16T06:15:27;9.20;99.90
4354;DHT22;11018;51.258;6.806;2023-04-16T06:17:54;9.30;99.90
4354;DHT22;11018;51.258;6.806;2023-04-16T06:20:20;9.20;99.90
4354;DHT22;11018;51.258;6.806;2023-04-16T06:22:45;9.30;99.90
4354;DHT22;11018;51.258;6.806;2023-04-16T06:25:11;9.30;99.90
4354;DHT22;11018;51.258;6.806;2023-04-16T06:27:37;9.30;99.90
4354;DHT22;11018;51.258;6.806;2023-04-16T06:30:02;9.40;99.90
4354;DHT22;11018;51.258;6.806;2023-04-16T06:32:28;9.40;99.90
4354;DHT22;11018;51.258;6.806;2023-04-16T06:34:54;9.40;99.90
4354;DHT22;11018;51.258;6.806;2023-04-16T06:37:20;9.40;99.90
4354;DHT22;11018;51.258;6.806;2023-04-16T06:39:46;9.40;99.90
4354;DHT22;11018;51.258;6.806;2023-04-16T06:42:11;9.30;99.90
4354;DHT22;11018;51.258;6.806;2023-04-16T06:44:37;9.30;99.90
4354;DHT22;11018;51.258;6.806;2023-04-16T06:47:03;9.30;99.90
4354;DHT22;11018;51.258;6.806;2023-04-16T06:49:28;9.40;99.90
4354;DHT22;11018;51.258;6.806;2023-04-16T06:51:54;9.40;99.90
4354;DHT22;11018;51.258;6.806;2023-04-16T06:54:19;9.40;99.90
4354;DHT22;11018;51.258;6.806;2023-04-16T06:56:45;9.40;99.90
4354;DHT22;11018;51.258;6.806;2023-04-16T06:59:10;9.50;99.90
4354;DHT22;11018;51.258;6.806;2023-04-16T07:01:36;9.50;99.90
4354;DHT22;11018;51.258;6.806;2023-04-16T07:04:01;9.40;99.90
4354;DHT22;11018;51.258;6.806;2023-04-16T07:06:27;9.40;99.90
4354;DHT22;11018;51.258;6.806;2023-04-16T07:08:53;9.50;99.90
4354;DHT22;11018;51.258;6.806;2023-04-16T07:11:18;9.50;99.90
4354;DHT22;11018;51.258;6.806;2023-04-16T07:13:45;9.60;99.90
4354;DHT22;11018;51.258;6.806;2023-04-16T07:16:10;9.70;99.90
4354;DHT22;11018;51.258;6.806;2023-04-16T07:18:36;9.70;99.90
4354;DHT22;11018;51.258;6.806;2023-04-16T07:21:02;9.70;99.90
4354;DHT22;11018;51.258;6.806;2023-04-16T07:23:28;9.80;99.80
4354;DHT22;11018;51.258;6.806;2023-04-16T07:25:53;9.80;99.90
4354;DHT22;11018;51.258;6.806;2023-04-16T07:28:19;9.90;98.00
4354;DHT22;11018;51.258;6.806;2023-04-16T07:30:44;9.90;98.40
4354;DHT22;11018;51.258;6.806;2023-04-16T07:33:10;10.00;95.50
4354;DHT22;11018;51.258;6.806;2023-04-16T07:35:36;10.10;93.60
4354;DHT22;11018;51.258;6.806;2023-04-16T07:38:01;10.10;91.90
4354;DHT22;11018;51.258;6.806;2023-04-16T07:40:27;10.10;93.00
4354;DHT22;11018;51.258;6.806;2023-04-16T07:42:54;10.20;94.30
4354;DHT22;11018;51.258;6.806;2023-04-16T07:45:20;10.20;92.80
4354;DHT22;11018;51.258;6.806;2023-04-16T07:47:45;10.30;94.20
4354;DHT22;11018;51.258;6.806;2023-04-16T07:50:11;10.40;90.50
4354;DHT22;11018;51.258;6.806;2023-04-16T07:52:37;10.40;90.70
4354;DHT22;11018;51.258;6.806;2023-04-16T07:55:06;10.50;91.00
4354;DHT22;11018;51.258;6.806;2023-04-16T07:57:32;10.70;90.20
4354;DHT22;11018;51.258;6.806;2023-04-16T07:59:57;10.70;86.80
4354;DHT22;11018;51.258;6.806;2023-04-16T08:02:23;10.60;84.80
4354;DHT22;11018;51.258;6.806;2023-04-16T08:04:48;10.60;85.80
4354;DHT22;11018;51.258;6.806;2023-04-16T08:07:14;10.70;84.30
4354;DHT22;11018;51.258;6.806;2023-04-16T08:09:47;10.80;83.00
4354;DHT22;11018;51.258;6.806;2023-04-16T08:12:13;10.80;83.40
4354;DHT22;11018;51.258;6.806;2023-04-16T08:14:38;11.00;82.30
4354;DHT22;11018;51.258;6.806;2023-04-16T08:17:05;11.20;77.50
4354;DHT22;11018;51.258;6.806;2023-04-16T08:19:31;11.20;78.80
4354;DHT22;11018;51.258;6.806;2023-04-16T08:21:56;11.40;76.70
4354;DHT22;11018;51.258;6.806;2023-04-16T08:24:22;11.30;74.40
4354;DHT22;11018;51.258;6.806;2023-04-16T08:26:47;11.40;76.10
4354;DHT22;11018;51.258;6.806;2023-04-16T08:29:13;11.40;75.00
4354;DHT22;11018;51.258;6.806;2023-04-16T08:31:38;11.30;74.20
4354;DHT22;11018;51.258;6.806;2023-04-16T08:34:04;11.10;75.20
4354;DHT22;11018;51.258;6.806;2023-04-16T08:36:30;11.10;74.10
4354;DHT22;11018;51.258;6.806;2023-04-16T08:38:55;11.10;77.60
4354;DHT22;11018;51.258;6.806;2023-04-16T08:41:22;11.20;77.30
4354;DHT22;11018;51.258;6.806;2023-04-16T08:43:49;11.20;75.50
4354;DHT22;11018;51.258;6.806;2023-04-16T08:46:16;11.10;73.90
4354;DHT22;11018;51.258;6.806;2023-04-16T08:48:43;11.20;73.80
4354;DHT22;11018;51.258;6.806;2023-04-16T08:51:10;11.40;74.40
4354;DHT22;11018;51.258;6.806;2023-04-16T08:53:48;11.70;71.90
4354;DHT22;11018;51.258;6.806;2023-04-16T08:56:16;11.80;66.80
4354;DHT22;11018;51.258;6.806;2023-04-16T08:58:46;11.70;64.20
4354;DHT22;11018;51.258;6.806;2023-04-16T09:01:13;11.60;64.70
4354;DHT22;11018;51.258;6.806;2023-04-16T09:03:40;11.90;65.00
4354;DHT22;11018;51.258;6.806;2023-04-16T09:06:06;12.20;62.00
4354;DHT22;11018;51.258;6.806;2023-04-16T09:08:33;12.00;58.90
4354;DHT22;11018;51.258;6.806;2023-04-16T09:11:00;12.30;61.30
4354;DHT22;11018;51.258;6.806;2023-04-16T09:13:26;12.30;56.60
4354;DHT22;11018;51.258;6.806;2023-04-16T09:15:54;12.20;60.30
4354;DHT22;11018;51.258;6.806;2023-04-16T09:18:21;12.20;59.60
4354;DHT22;11018;51.258;6.806;2023-04-16T09:20:48;12.20;61.10
4354;DHT22;11018;51.258;6.806;2023-04-16T09:23:13;12.30;59.30
4354;DHT22;11018;51.258;6.806;2023-04-16T09:25:39;12.40;59.60
4354;DHT22;11018;51.258;6.806;2023-04-16T09:28:05;12.10;57.00
4354;DHT22;11018;51.258;6.806;2023-04-16T09:30:30;11.90;59.80
4354;DHT22;11018;51.258;6.806;2023-04-16T09:33:17;12.10;62.30
4354;DHT22;11018;51.258;6.806;2023-04-16T09:35:55;12.30;58.30
4354;DHT22;11018;51.258;6.806;2023-04-16T09:38:21;12.50;56.80
4354;DHT22;11018;51.258;6.806;2023-04-16T09:40:47;12.70;55.20
4354;DHT22;11018;51.258;6.806;2023-04-16T09:43:16;13.00;53.20
4354;DHT22;11018;51.258;6.806;2023-04-16T09:45:49;13.00;46.90
4354;DHT22;11018;51.258;6.806;2023-04-16T09:48:15;13.20;49.90
4354;DHT22;11018;51.258;6.806;2023-04-16T09:50:49;13.50;49.50
4354;DHT22;11018;51.258;6.806;2023-04-16T09:53:26;13.30;47.70
4354;DHT22;11018;51.258;6.806;2023-04-16T09:55:55;13.20;48.60
4354;DHT22;11018;51.258;6.806;2023-04-16T09:58:22;13.20;49.80
4354;DHT22;11018;51.258;6.806;2023-04-16T10:00:54;13.30;49.90
4354;DHT22;11018;51.258;6.806;2023-04-16T10:03:28;13.20;47.80
4354;DHT22;11018;51.258;6.806;2023-04-16T10:05:54;12.90;51.60
4354;DHT22;11018;51.258;6.806;2023-04-16T10:08:20;12.70;52.90
4354;DHT22;11018;51.258;6.806;2023-04-16T10:10:46;12.60;54.40
4354;DHT22;11018;51.258;6.806;2023-04-16T10:13:11;12.60;54.30
4354;DHT22;11018;51.258;6.806;2023-04-16T10:15:41;12.80;52.50
4354;DHT22;11018;51.258;6.806;2023-04-16T10:18:07;13.10;50.80
4354;DHT22;11018;51.258;6.806;2023-04-16T10:20:33;13.00;51.30
4354;DHT22;11018;51.258;6.806;2023-04-16T10:22:59;13.20;51.50
4354;DHT22;11018;51.258;6.806;2023-04-16T10:25:27;13.20;49.00
4354;DHT22;11018;51.258;6.806;2023-04-16T10:27:53;13.30;48.80
4354;DHT22;11018;51.258;6.806;2023-04-16T10:30:20;13.40;48.70
4354;DHT22;11018;51.258;6.806;2023-04-16T10:32:46;13.40;48.70
4354;DHT22;11018;51.258;6.806;2023-04-16T10:35:18;13.40;46.80
4354;DHT22;11018;51.258;6.806;2023-04-16T10:37:44;13.40;47.80
4354;DHT22;11018;51.258;6.806;2023-04-16T10:40:23;13.50;48.60
4354;DHT22;11018;51.258;6.806;2023-04-16T10:42:56;13.80;46.60
4354;DHT22;11018;51.258;6.806;2023-04-16T10:45:28;14.10;40.90
4354;DHT22;11018;51.258;6.806;2023-04-16T10:47:55;14.50;41.10
4354;DHT22;11018;51.258;6.806;2023-04-16T10:50:22;14.30;39.70
4354;DHT22;11018;51.258;6.806;2023-04-16T10:52:47;14.20;38.90
4354;DHT22;11018;51.258;6.806;2023-04-16T10:55:16;14.50;38.00
4354;DHT22;11018;51.258;6.806;2023-04-16T10:57:42;14.70;34.80
4354;DHT22;11018;51.258;6.806;2023-04-16T11:00:28;14.70;35.80
4354;DHT22;11018;51.258;6.806;2023-04-16T11:02:53;15.10;32.10
4354;DHT22;11018;51.258;6.806;2023-04-16T11:05:23;15.20;31.30
4354;DHT22;11018;51.258;6.806;2023-04-16T11:07:48;15.20;31.00
4354;DHT22;11018;51.258;6.806;2023-04-16T11:10:14;15.10;29.70
4354;DHT22;11018;51.258;6.806;2023-04-16T11:12:43;15.00;30.70
4354;DHT22;11018;51.258;6.806;2023-04-16T11:15:12;14.90;30.70
4354;DHT22;11018;51.258;6.806;2023-04-16T11:17:43;14.20;32.80
4354;DHT22;11018;51.258;6.806;2023-04-16T11:20:20;14.10;33.70
4354;DHT22;11018;51.258;6.806;2023-04-16T11:22:53;14.20;33.10
4354;DHT22;11018;51.258;6.806;2023-04-16T11:27:49;14.30;38.80
4354;DHT22;11018;51.258;6.806;2023-04-16T11:30:16;14.40;38.60
4354;DHT22;11018;51.258;6.806;2023-04-16T11:32:43;14.50;39.00
4354;DHT22;11018;51.258;6.806;2023-04-16T11:35:18;14.70;37.80
4354;DHT22;11018;51.258;6.806;2023-04-16T11:37:44;14.60;36.20
4354;DHT22;11018;51.258;6.806;2023-04-16T11:40:11;14.30;38.80
4354;DHT22;11018;51.258;6.806;2023-04-16T11:42:38;14.30;37.70
4354;DHT22;11018;51.258;6.806;2023-04-16T11:45:09;14.40;37.10
4354;DHT22;11018;51.258;6.806;2023-04-16T11:47:49;14.60;35.20
4354;DHT22;11018;51.258;6.806;2023-04-16T11:50:22;14.80;33.60
4354;DHT22;11018;51.258;6.806;2023-04-16T11:52:49;14.90;31.50
4354;DHT22;11018;51.258;6.806;2023-04-16T11:55:15;14.90;27.80
4354;DHT22;11018;51.258;6.806;2023-04-16T11:57:41;15.10;28.50
4354;DHT22;11018;51.258;6.806;2023-04-16T12:00:07;15.50;25.00
4354;DHT22;11018;51.258;6.806;2023-04-16T12:02:50;16.10;22.70
4354;DHT22;11018;51.258;6.806;2023-04-16T12:05:36;16.20;22.00
4354;DHT22;11018;51.258;6.806;2023-04-16T12:08:06;16.30;22.00
4354;DHT22;11018;51.258;6.806;2023-04-16T12:10:34;16.00;23.30
4354;DHT22;11018;51.258;6.806;2023-04-16T12:13:13;15.70;24.60
4354;DHT22;11018;51.258;6.806;2023-04-16T12:15:44;15.20;27.70
4354;DHT22;11018;51.258;6.806;2023-04-16T12:18:10;14.90;29.70
4354;DHT22;11018;51.258;6.806;2023-04-16T12:20:39;14.90;30.70
4354;DHT22;11018;51.258;6.806;2023-04-16T12:23:08;15.00;29.20
4354;DHT22;11018;51.258;6.806;2023-04-16T12:25:34;15.30;27.20
4354;DHT22;11018;51.258;6.806;2023-04-16T12:27:59;15.50;24.60
4354;DHT22;11018;51.258;6.806;2023-04-16T12:30:26;15.60;24.70
4354;DHT22;11018;51.258;6.806;2023-04-16T12:33:13;15.90;23.70
4354;DHT22;11018;51.258;6.806;2023-04-16T12:35:40;15.80;22.50
4354;DHT22;11018;51.258;6.806;2023-04-16T12:38:07;15.80;22.80
4354;DHT22;11018;51.258;6.806;2023-04-16T12:40:33;15.70;23.20
4354;DHT22;11018;51.258;6.806;2023-04-16T12:43:00;15.50;23.60
4354;DHT22;11018;51.258;6.806;2023-04-16T12:45:26;15.40;23.70
4354;DHT22;11018;51.258;6.806;2023-04-16T12:47:52;15.40;22.70
4354;DHT22;11018;51.258;6.806;2023-04-16T12:50:17;15.40;22.80
4354;DHT22;11018;51.258;6.806;2023-04-16T12:52:43;15.40;23.70
4354;DHT22;11018;51.258;6.806;2023-04-16T12:55:09;15.60;22.80
4354;DHT22;11018;51.258;6.806;2023-04-16T12:57:34;16.00;22.00
4354;DHT22;11018;51.258;6.806;2023-04-16T13:00:00;16.30;21.50
4354;DHT22;11018;51.258;6.806;2023-04-16T13:02:26;16.40;19.90
4354;DHT22;11018;51.258;6.806;2023-04-16T13:04:53;16.20;20.60
4354;DHT22;11018;51.258;6.806;2023-04-16T13:07:19;16.00;20.50
4354;DHT22;11018;51.258;6.806;2023-04-16T13:09:46;15.80;21.10
4354;DHT22;11018;51.258;6.806;2023-04-16T13:12:11;15.40;22.70
4354;DHT22;11018;51.258;6.806;2023-04-16T13:14:37;15.10;23.60
4354;DHT22;11018;51.258;6.806;2023-04-16T13:17:03;15.00;24.60
4354;DHT22;11018;51.258;6.806;2023-04-16T13:19:29;14.90;25.80
4354;DHT22;11018;51.258;6.806;2023-04-16T13:21:55;14.90;25.40
4354;DHT22;11018;51.258;6.806;2023-04-16T13:24:20;15.10;25.70
4354;DHT22;11018;51.258;6.806;2023-04-16T13:26:47;15.00;25.40
4354;DHT22;11018;51.258;6.806;2023-04-16T13:29:12;15.20;25.20
4354;DHT22;11018;51.258;6.806;2023-04-16T13:31:38;15.20;24.20
4354;DHT22;11018;51.258;6.806;2023-04-16T13:34:04;15.10;25.40
4354;DHT22;11018;51.258;6.806;2023-04-16T13:36:30;15.10;26.60
4354;DHT22;11018;51.258;6.806;2023-04-16T13:38:57;15.00;26.10
4354;DHT22;11018;51.258;6.806;2023-04-16T13:41:24;15.00;26.70
4354;DHT22;11018;51.258;6.806;2023-04-16T13:43:49;14.90;27.00
4354;DHT22;11018;51.258;6.806;2023-04-16T13:46:15;14.90;28.50
4354;DHT22;11018;51.258;6.806;2023-04-16T13:48:41;14.70;28.10
4354;DHT22;11018;51.258;6.806;2023-04-16T13:51:06;15.00;27.10
4354;DHT22;11018;51.258;6.806;2023-04-16T13:53:33;15.20;26.30
4354;DHT22;11018;51.258;6.806;2023-04-16T13:55:58;15.30;26.10
4354;DHT22;11018;51.258;6.806;2023-04-16T13:58:24;15.40;25.60
4354;DHT22;11018;51.258;6.806;2023-04-16T14:00:50;15.10;25.30
4354;DHT22;11018;51.258;6.806;2023-04-16T14:03:16;15.20;26.20
4354;DHT22;11018;51.258;6.806;2023-04-16T14:05:42;15.20;25.30
4354;DHT22;11018;51.258;6.806;2023-04-16T14:08:07;15.40;25.30
4354;DHT22;11018;51.258;6.806;2023-04-16T14:10:34;15.50;25.80
4354;DHT22;11018;51.258;6.806;2023-04-16T14:13:00;15.90;24.80
4354;DHT22;11018;51.258;6.806;2023-04-16T14:15:25;15.90;24.30
4354;DHT22;11018;51.258;6.806;2023-04-16T14:17:54;16.10;23.10
4354;DHT22;11018;51.258;6.806;2023-04-16T14:20:19;16.20;22.70
4354;DHT22;11018;51.258;6.806;2023-04-16T14:22:45;16.60;21.70
4354;DHT22;11018;51.258;6.806;2023-04-16T14:25:11;16.40;20.40
4354;DHT22;11018;51.258;6.806;2023-04-16T14:27:36;16.40;21.10
4354;DHT22;11018;51.258;6.806;2023-04-16T14:30:03;16.10;22.50
4354;DHT22;11018;51.258;6.806;2023-04-16T14:32:29;15.90;23.10
4354;DHT22;11018;51.258;6.806;2023-04-16T14:34:55;15.80;22.50
4354;DHT22;11018;51.258;6.806;2023-04-16T14:37:20;16.00;22.20
4354;DHT22;11018;51.258;6.806;2023-04-16T14:39:46;15.90;23.20
4354;DHT22;11018;51.258;6.806;2023-04-16T14:42:11;15.80;23.50
4354;DHT22;11018;51.258;6.806;2023-04-16T14:44:37;15.70;23.40
4354;DHT22;11018;51.258;6.806;2023-04-16T14:47:03;15.40;24.50
4354;DHT22;11018;51.258;6.806;2023-04-16T14:49:28;15.50;24.40
4354;DHT22;11018;51.258;6.806;2023-04-16T14:51:54;15.30;25.60
4354;DHT22;11018;51.258;6.806;2023-04-16T14:54:21;15.30;25.30
4354;DHT22;11018;51.258;6.806;2023-04-16T14:56:46;15.30;26.20
4354;DHT22;11018;51.258;6.806;2023-04-16T14:59:12;15.50;25.70
4354;DHT22;11018;51.258;6.806;2023-04-16T15:01:38;15.80;24.60
4354;DHT22;11018;51.258;6.806;2023-04-16T15:04:06;15.90;23.00
4354;DHT22;11018;51.258;6.806;2023-04-16T15:06:33;16.00;22.70
4354;DHT22;11018;51.258;6.806;2023-04-16T15:08:59;16.00;22.60
4354;DHT22;11018;51.258;6.806;2023-04-16T15:11:25;16.10;22.10
4354;DHT22;11018;51.258;6.806;2023-04-16T15:13:50;16.00;22.90
4354;DHT22;11018;51.258;6.806;2023-04-16T15:16:16;16.10;22.00
4354;DHT22;11018;51.258;6.806;2023-04-16T15:18:42;16.20;22.00
4354;DHT22;11018;51.258;6.806;2023-04-16T15:21:08;16.20;21.70
4354;DHT22;11018;51.258;6.806;2023-04-16T15:23:33;15.90;21.70
4354;DHT22;11018;51.258;6.806;2023-04-16T15:25:59;15.40;23.60
4354;DHT22;11018;51.258;6.806;2023-04-16T15:28:24;15.20;24.10
4354;DHT22;11018;51.258;6.806;2023-04-16T15:30:50;15.20;24.10
4354;DHT22;11018;51.258;6.806;2023-04-16T15:33:16;15.20;22.40
4354;DHT22;11018;51.258;6.806;2023-04-16T15:35:44;15.20;24.30
4354;DHT22;11018;51.258;6.806;2023-04-16T15:38:10;16.00;22.50
4354;DHT22;11018;51.258;6.806;2023-04-16T15:40:35;16.80;20.00
4354;DHT22;11018;51.258;6.806;2023-04-16T15:43:01;17.50;18.30
4354;DHT22;11018;51.258;6.806;2023-04-16T15:45:26;17.40;17.90
4354;DHT22;11018;51.258;6.806;2023-04-16T15:47:53;17.20;18.20
4354;DHT22;11018;51.258;6.806;2023-04-16T15:50:19;17.00;18.50